createdAt,value
2023-08-08T00:00:28.281Z,99.36
2023-08-08T00:01:28.308Z,99.31
2023-08-08T00:02:28.248Z,99.26
2023-08-08T00:03:28.279Z,99.01
2023-08-08T00:04:28.218Z,99.05
2023-08-08T00:05:28.220Z,98.85
2023-08-08T00:06:28.221Z,99.26
2023-08-08T00:07:28.188Z,98.85
2023-08-08T00:08:28.188Z,99.46
2023-08-08T00:09:28.174Z,99.16
2023-08-08T00:10:28.164Z,99.26
2023-08-08T00:11:28.181Z,99.66
2023-08-08T00:12:28.163Z,99.46
2023-08-08T00:13:28.139Z,99.05
2023-08-08T00:14:28.128Z,99.05
2023-08-08T00:15:28.234Z,99.16
2023-08-08T00:16:28.200Z,99.26
2023-08-08T00:17:28.125Z,99.05
2023-08-08T00:18:28.107Z,98.85
2023-08-08T00:19:28.054Z,99.05
2023-08-08T00:20:28.070Z,99.36
2023-08-08T00:21:28.037Z,98.85
2023-08-08T00:22:28.046Z,99.16
2023-08-08T00:23:28.030Z,99.16
2023-08-08T00:24:28.033Z,99.16
2023-08-08T00:25:27.993Z,99.56
2023-08-08T00:26:27.991Z,99.36
2023-08-08T00:27:28.015Z,98.85
2023-08-08T00:28:27.980Z,99.16
2023-08-08T00:29:27.950Z,99.46
2023-08-08T00:30:27.961Z,99.16
2023-08-08T00:31:28.013Z,99.16
2023-08-08T00:32:27.989Z,99.36
2023-08-08T00:33:27.927Z,99.16
2023-08-08T00:34:27.955Z,99.46
2023-08-08T00:35:27.893Z,98.65
2023-08-08T00:36:27.910Z,99.05
2023-08-08T00:37:27.885Z,98.95
2023-08-08T00:38:27.990Z,98.75
2023-08-08T00:39:27.880Z,98.54
2023-08-08T00:40:27.872Z,98.69
2023-08-08T00:41:27.832Z,99.10
2023-08-08T00:42:27.822Z,99.20
2023-08-08T00:43:27.820Z,99.10
2023-08-08T00:44:27.798Z,98.69
2023-08-08T00:45:27.810Z,98.59
2023-08-08T00:46:27.850Z,98.79
2023-08-08T00:47:27.837Z,98.79
2023-08-08T00:48:27.877Z,98.69
2023-08-08T00:49:27.772Z,98.90
2023-08-08T00:50:27.745Z,98.79
2023-08-08T00:51:27.760Z,98.79
2023-08-08T00:52:27.744Z,98.69
2023-08-08T00:53:27.729Z,99.25
2023-08-08T00:54:27.697Z,98.39
2023-08-08T00:55:27.705Z,98.18
2023-08-08T00:56:27.701Z,98.08
2023-08-08T00:57:27.701Z,98.18
2023-08-08T00:58:27.650Z,98.43
2023-08-08T00:59:27.645Z,98.18
2023-08-08T01:00:27.667Z,97.98
2023-08-08T01:01:27.653Z,98.23
2023-08-08T01:02:27.704Z,98.13
2023-08-08T01:03:27.627Z,98.13
2023-08-08T01:04:27.709Z,98.43
2023-08-08T01:05:27.585Z,98.54
2023-08-08T01:06:27.580Z,98.13
2023-08-08T01:07:27.568Z,98.33
2023-08-08T01:08:27.546Z,98.23
2023-08-08T01:09:29.734Z,98.33
2023-08-08T01:10:27.612Z,98.54
2023-08-08T01:11:27.523Z,98.54
2023-08-08T01:12:27.521Z,98.54
2023-08-08T01:13:27.518Z,98.84
2023-08-08T01:14:27.504Z,98.94
2023-08-08T01:15:27.476Z,98.94
2023-08-08T01:16:27.544Z,98.84
2023-08-08T01:17:27.581Z,98.74
2023-08-08T01:18:27.446Z,98.94
2023-08-08T01:19:27.451Z,98.74
2023-08-08T01:20:27.474Z,98.89
2023-08-08T01:21:27.411Z,98.43
2023-08-08T01:22:27.430Z,98.43
2023-08-08T01:23:27.398Z,98.79
2023-08-08T01:24:27.377Z,98.23
2023-08-08T01:25:27.372Z,98.43
2023-08-08T01:26:27.362Z,98.58
2023-08-08T01:27:27.338Z,98.74
2023-08-08T01:28:27.332Z,98.38
2023-08-08T01:29:27.336Z,98.79
2023-08-08T01:30:27.445Z,98.27
2023-08-08T01:31:27.334Z,98.38
2023-08-08T01:32:27.343Z,98.48
2023-08-08T01:33:27.293Z,98.38
2023-08-08T01:34:27.298Z,98.27
2023-08-08T01:35:27.260Z,98.27
2023-08-08T01:36:27.289Z,98.27
2023-08-08T01:37:27.236Z,98.18
2023-08-08T01:38:27.220Z,98.58
2023-08-08T01:39:27.256Z,98.48
2023-08-08T01:40:27.197Z,98.07
2023-08-08T01:41:27.199Z,98.83
2023-08-08T01:42:27.201Z,99.24
2023-08-08T01:43:27.169Z,99.14
2023-08-08T01:44:27.157Z,98.83
2023-08-08T01:45:27.167Z,99.04
2023-08-08T01:46:27.256Z,98.83
2023-08-08T01:47:27.183Z,98.79
2023-08-08T01:48:27.135Z,98.83
2023-08-08T01:49:27.110Z,98.93
2023-08-08T01:50:27.091Z,99.14
2023-08-08T01:51:27.574Z,98.93
2023-08-08T01:52:27.087Z,98.93
2023-08-08T01:53:27.065Z,99.04
2023-08-08T01:54:27.071Z,98.83
2023-08-08T01:55:27.044Z,98.83
2023-08-08T01:56:27.053Z,98.73
2023-08-08T01:57:27.029Z,98.83
2023-08-08T01:58:27.019Z,98.83
2023-08-08T01:59:27.002Z,98.93
2023-08-08T02:00:26.980Z,98.83
2023-08-08T02:01:27.022Z,98.83
2023-08-08T02:02:27.083Z,98.83
2023-08-08T02:03:27.034Z,98.83
2023-08-08T02:04:26.982Z,98.79
2023-08-08T02:05:26.950Z,98.73
2023-08-08T02:06:26.917Z,98.93
2023-08-08T02:07:26.921Z,99.14
2023-08-08T02:08:26.941Z,99.24
2023-08-08T02:09:26.904Z,99.24
2023-08-08T02:10:26.886Z,99.14
2023-08-08T02:11:26.889Z,99.04
2023-08-08T02:12:26.867Z,98.73
2023-08-08T02:13:26.838Z,99.09
2023-08-08T02:14:26.828Z,98.93
2023-08-08T02:15:26.842Z,98.83
2023-08-08T02:16:26.848Z,98.93
2023-08-08T02:17:26.859Z,99.04
2023-08-08T02:18:26.814Z,99.14
2023-08-08T02:19:26.783Z,99.24
2023-08-08T02:20:26.780Z,98.73
2023-08-08T02:21:26.758Z,99.24
2023-08-08T02:22:26.767Z,98.83
2023-08-08T02:23:26.739Z,98.83
2023-08-08T02:24:26.755Z,98.93
2023-08-08T02:25:26.724Z,99.34
2023-08-08T02:26:26.704Z,99.24
2023-08-08T02:27:26.696Z,99.24
2023-08-08T02:28:27.542Z,98.93
2023-08-08T02:29:26.676Z,99.04
2023-08-08T02:30:26.684Z,99.18
2023-08-08T02:31:26.673Z,99.34
2023-08-08T02:32:26.652Z,99.04
2023-08-08T02:33:26.631Z,98.98
2023-08-08T02:34:26.618Z,98.83
2023-08-08T02:35:26.610Z,99.08
2023-08-08T02:36:26.607Z,98.98
2023-08-08T02:37:26.578Z,99.08
2023-08-08T02:38:26.565Z,98.83
2023-08-08T02:39:26.566Z,99.04
2023-08-08T02:40:26.578Z,99.08
2023-08-08T02:41:26.552Z,98.93
2023-08-08T02:42:26.607Z,98.98
2023-08-08T02:43:26.524Z,99.18
2023-08-08T02:44:26.542Z,99.18
2023-08-08T02:45:26.491Z,98.77
2023-08-08T02:46:26.538Z,98.68
2023-08-08T02:47:26.499Z,98.77
2023-08-08T02:48:26.476Z,99.18
2023-08-08T02:49:26.452Z,99.08
2023-08-08T02:50:26.456Z,98.88
2023-08-08T02:51:26.432Z,98.98
2023-08-08T02:52:26.426Z,98.98
2023-08-08T02:53:26.410Z,99.69
2023-08-08T02:54:26.397Z,99.08
2023-08-08T02:55:26.386Z,99.29
2023-08-08T02:56:26.387Z,99.18
2023-08-08T02:57:26.356Z,99.08
2023-08-08T02:58:26.355Z,99.29
2023-08-08T02:59:26.363Z,99.08
2023-08-08T03:00:26.326Z,98.88
2023-08-08T03:01:26.361Z,99.08
2023-08-08T03:02:26.366Z,98.77
2023-08-08T03:03:26.312Z,98.98
2023-08-08T03:04:26.304Z,98.88
2023-08-08T03:05:26.343Z,98.98
2023-08-08T03:06:26.278Z,99.08
2023-08-08T03:07:26.266Z,99.08
2023-08-08T03:08:26.248Z,99.08
2023-08-08T03:09:26.234Z,99.08
2023-08-08T03:10:26.228Z,99.29
2023-08-08T03:11:26.215Z,99.08
2023-08-08T03:12:26.312Z,98.98
2023-08-08T03:13:26.205Z,99.08
2023-08-08T03:14:26.183Z,99.18
2023-08-08T03:15:26.186Z,98.68
2023-08-08T03:16:26.227Z,99.02
2023-08-08T03:17:26.185Z,99.23
2023-08-08T03:18:26.130Z,99.13
2023-08-08T03:19:26.139Z,99.29
2023-08-08T03:20:26.214Z,98.82
2023-08-08T03:21:26.099Z,98.68
2023-08-08T03:22:26.135Z,98.31
2023-08-08T03:23:26.079Z,98.61
2023-08-08T03:24:26.083Z,98.61
2023-08-08T03:25:26.075Z,98.93
2023-08-08T03:26:26.046Z,98.82
2023-08-08T03:27:26.044Z,98.97
2023-08-08T03:28:26.041Z,99.13
2023-08-08T03:29:26.020Z,99.23
2023-08-08T03:30:26.024Z,99.33
2023-08-08T03:31:25.995Z,99.33
2023-08-08T03:32:26.010Z,99.02
2023-08-08T03:33:25.974Z,98.82
2023-08-08T03:34:26.019Z,99.02
2023-08-08T03:35:25.957Z,99.38
2023-08-08T03:36:25.955Z,99.27
2023-08-08T03:37:25.949Z,99.23
2023-08-08T03:38:25.914Z,98.97
2023-08-08T03:39:25.948Z,99.23
2023-08-08T03:40:25.895Z,99.13
2023-08-08T03:41:25.905Z,99.27
2023-08-08T03:42:26.053Z,98.93
2023-08-08T03:43:25.869Z,99.07
2023-08-08T03:44:25.883Z,99.27
2023-08-08T03:45:25.848Z,99.07
2023-08-08T03:46:25.865Z,99.38
2023-08-08T03:47:25.877Z,98.86
2023-08-08T03:48:25.803Z,99.27
2023-08-08T03:49:25.835Z,99.27
2023-08-08T03:50:25.809Z,99.38
2023-08-08T03:51:25.800Z,99.27
2023-08-08T03:52:25.770Z,99.18
2023-08-08T03:53:25.784Z,98.86
2023-08-08T03:54:25.743Z,99.38
2023-08-08T03:55:25.740Z,99.27
2023-08-08T03:56:25.739Z,99.38
2023-08-08T03:57:25.732Z,98.93
2023-08-08T03:58:25.698Z,99.58
2023-08-08T03:59:25.712Z,99.18
2023-08-08T04:00:25.705Z,98.97
2023-08-08T04:01:25.805Z,98.97
2023-08-08T04:02:25.688Z,99.07
2023-08-08T04:03:25.693Z,99.18
2023-08-08T04:04:25.652Z,98.97
2023-08-08T04:05:25.630Z,99.07
2023-08-08T04:06:25.613Z,99.18
2023-08-08T04:07:25.606Z,99.13
2023-08-08T04:08:25.603Z,99.27
2023-08-08T04:09:25.604Z,98.97
2023-08-08T04:10:25.578Z,99.07
2023-08-08T04:11:25.583Z,99.27
2023-08-08T04:12:25.558Z,99.48
2023-08-08T04:13:25.546Z,99.27
2023-08-08T04:14:25.539Z,99.27
2023-08-08T04:15:25.544Z,98.77
2023-08-08T04:16:27.069Z,99.07
2023-08-08T04:17:25.518Z,98.46
2023-08-08T04:18:25.491Z,98.46
2023-08-08T04:19:25.547Z,98.46
2023-08-08T04:20:25.468Z,98.25
2023-08-08T04:21:25.456Z,98.56
2023-08-08T04:22:25.462Z,98.46
2023-08-08T04:23:25.472Z,98.61
2023-08-08T04:24:25.420Z,98.46
2023-08-08T04:25:25.426Z,98.56
2023-08-08T04:26:25.398Z,98.77
2023-08-08T04:27:25.390Z,98.56
2023-08-08T04:28:25.388Z,99.27
2023-08-08T04:29:25.367Z,99.38
2023-08-08T04:30:25.378Z,99.38
2023-08-08T04:31:25.446Z,99.18
2023-08-08T04:32:25.391Z,99.48
2023-08-08T04:33:25.325Z,98.81
2023-08-08T04:34:25.330Z,99.27
2023-08-08T04:35:25.331Z,99.18
2023-08-08T04:36:25.296Z,99.18
2023-08-08T04:37:25.278Z,99.48
2023-08-08T04:38:25.266Z,99.68
2023-08-08T04:39:25.290Z,99.68
2023-08-08T04:40:25.383Z,99.58
2023-08-08T04:41:25.240Z,99.18
2023-08-08T04:42:25.230Z,99.79
2023-08-08T04:43:25.221Z,99.89
2023-08-08T04:44:25.209Z,99.58
2023-08-08T04:45:25.222Z,99.68
2023-08-08T04:46:25.288Z,99.58
2023-08-08T04:47:25.244Z,99.79
2023-08-08T04:48:25.180Z,99.74
2023-08-08T04:49:25.153Z,99.95
2023-08-08T04:50:25.165Z,99.79
2023-08-08T04:51:25.126Z,99.58
2023-08-08T04:52:25.106Z,99.54
2023-08-08T04:53:25.105Z,99.58
2023-08-08T04:54:25.104Z,99.74
2023-08-08T04:55:25.095Z,99.84
2023-08-08T04:56:25.083Z,99.99
2023-08-08T04:57:25.060Z,99.95
2023-08-08T04:58:25.052Z,99.95
2023-08-08T04:59:25.045Z,99.99
2023-08-08T05:00:25.034Z,99.95
2023-08-08T05:01:25.052Z,99.99
2023-08-08T05:02:25.010Z,99.79
2023-08-08T05:03:25.082Z,99.90
2023-08-08T05:04:25.010Z,99.79
2023-08-08T05:05:25.009Z,99.99
2023-08-08T05:06:24.968Z,99.99
2023-08-08T05:07:24.952Z,99.99
2023-08-08T05:08:24.981Z,99.99
2023-08-08T05:09:24.955Z,99.99
2023-08-08T05:10:24.948Z,99.95
2023-08-08T05:11:24.918Z,99.99
2023-08-08T05:12:26.203Z,99.99
2023-08-08T05:13:24.900Z,99.99
2023-08-08T05:14:24.893Z,99.99
2023-08-08T05:15:24.893Z,99.99
2023-08-08T05:16:24.879Z,99.99
2023-08-08T05:17:24.929Z,99.99
2023-08-08T05:18:24.856Z,99.99
2023-08-08T05:19:24.822Z,99.99
2023-08-08T05:20:24.851Z,99.99
2023-08-08T05:21:24.806Z,99.99
2023-08-08T05:22:24.799Z,99.99
2023-08-08T05:23:24.787Z,99.99
2023-08-08T05:24:24.783Z,99.99
2023-08-08T05:25:24.789Z,99.86
2023-08-08T05:26:24.751Z,99.66
2023-08-08T05:27:24.761Z,99.86
2023-08-08T05:28:24.732Z,99.76
2023-08-08T05:29:24.719Z,99.35
2023-08-08T05:30:24.705Z,99.51
2023-08-08T05:31:24.692Z,99.66
2023-08-08T05:32:24.704Z,98.94
2023-08-08T05:33:24.669Z,98.69
2023-08-08T05:34:24.663Z,99.10
2023-08-08T05:35:24.669Z,99.00
2023-08-08T05:36:24.768Z,98.59
2023-08-08T05:37:24.643Z,98.59
2023-08-08T05:38:24.640Z,99.10
2023-08-08T05:39:24.604Z,98.79
2023-08-08T05:40:24.600Z,98.54
2023-08-08T05:41:24.588Z,98.85
2023-08-08T05:42:24.603Z,98.85
2023-08-08T05:43:24.558Z,98.85
2023-08-08T05:44:24.565Z,98.03
2023-08-08T05:45:24.543Z,98.34
2023-08-08T05:46:24.565Z,97.58
2023-08-08T05:47:24.541Z,97.99
2023-08-08T05:48:24.513Z,97.99
2023-08-08T05:49:24.508Z,97.48
2023-08-08T05:50:24.506Z,97.78
2023-08-08T05:51:24.493Z,96.46
2023-08-08T05:52:24.480Z,96.26
2023-08-08T05:53:24.454Z,95.61
2023-08-08T05:54:24.475Z,95.20
2023-08-08T05:55:24.439Z,95.50
2023-08-08T05:56:24.451Z,95.66
2023-08-08T05:57:24.416Z,95.46
2023-08-08T05:58:24.403Z,95.66
2023-08-08T05:59:24.394Z,95.01
2023-08-08T06:00:24.421Z,95.05
2023-08-08T06:01:24.418Z,95.21
2023-08-08T06:02:24.364Z,95.21
2023-08-08T06:03:24.369Z,95.01
2023-08-08T06:04:24.342Z,95.10
2023-08-08T06:05:24.352Z,94.35
2023-08-08T06:06:24.321Z,94.45
2023-08-08T06:07:24.310Z,94.66
2023-08-08T06:08:24.320Z,94.21
2023-08-08T06:09:24.315Z,93.60
2023-08-08T06:10:24.276Z,93.60
2023-08-08T06:11:24.260Z,93.25
2023-08-08T06:12:24.264Z,93.55
2023-08-08T06:13:24.263Z,93.15
2023-08-08T06:14:24.240Z,92.94
2023-08-08T06:15:24.223Z,93.00
2023-08-08T06:16:24.280Z,91.58
2023-08-08T06:17:24.223Z,90.67
2023-08-08T06:18:24.194Z,88.95
2023-08-08T06:19:24.186Z,89.50
2023-08-08T06:20:24.202Z,91.08
2023-08-08T06:21:24.152Z,90.47
2023-08-08T06:22:24.444Z,89.96
2023-08-08T06:23:24.147Z,90.42
2023-08-08T06:24:24.140Z,89.41
2023-08-08T06:25:24.106Z,88.35
2023-08-08T06:26:24.104Z,88.86
2023-08-08T06:27:24.136Z,88.66
2023-08-08T06:28:24.073Z,88.35
2023-08-08T06:29:24.069Z,87.95
2023-08-08T06:30:24.061Z,89.12
2023-08-08T06:31:24.043Z,89.94
2023-08-08T06:32:24.046Z,89.63
2023-08-08T06:33:24.037Z,88.82
2023-08-08T06:34:24.008Z,87.91
2023-08-08T06:35:24.019Z,88.42
2023-08-08T06:36:23.986Z,88.82
2023-08-08T06:37:23.985Z,88.86
2023-08-08T06:38:24.002Z,88.72
2023-08-08T06:39:23.949Z,89.12
2023-08-08T06:40:23.969Z,89.73
2023-08-08T06:41:23.930Z,90.18
2023-08-08T06:42:23.929Z,90.44
2023-08-08T06:43:23.922Z,90.95
2023-08-08T06:44:23.920Z,91.46
2023-08-08T06:45:23.895Z,90.34
2023-08-08T06:46:23.941Z,89.23
2023-08-08T06:47:23.867Z,89.73
2023-08-08T06:48:23.872Z,90.03
2023-08-08T06:49:23.858Z,90.79
2023-08-08T06:50:23.856Z,90.75
2023-08-08T06:51:23.841Z,90.64
2023-08-08T06:52:23.819Z,89.63
2023-08-08T06:53:23.802Z,89.53
2023-08-08T06:54:23.799Z,89.02
2023-08-08T06:55:23.790Z,89.63
2023-08-08T06:56:23.810Z,89.63
2023-08-08T06:57:23.768Z,89.83
2023-08-08T06:58:23.753Z,89.94
2023-08-08T06:59:23.736Z,90.80
2023-08-08T07:00:23.759Z,89.89
2023-08-08T07:01:23.783Z,89.28
2023-08-08T07:02:23.748Z,89.48
2023-08-08T07:03:23.777Z,87.12
2023-08-08T07:04:23.703Z,88.09
2023-08-08T07:05:23.688Z,87.38
2023-08-08T07:06:23.675Z,86.53
2023-08-08T07:07:23.684Z,85.31
2023-08-08T07:08:23.676Z,85.62
2023-08-08T07:09:23.643Z,85.42
2023-08-08T07:10:23.636Z,85.93
2023-08-08T07:11:23.634Z,84.45
2023-08-08T07:12:23.615Z,86.22
2023-08-08T07:13:23.661Z,85.72
2023-08-08T07:14:23.591Z,86.22
2023-08-08T07:15:23.582Z,85.25
2023-08-08T07:16:23.608Z,86.13
2023-08-08T07:17:23.563Z,83.29
2023-08-08T07:18:23.554Z,83.80
2023-08-08T07:19:23.522Z,84.41
2023-08-08T07:20:23.539Z,82.95
2023-08-08T07:21:23.504Z,83.01
2023-08-08T07:22:23.527Z,82.91
2023-08-08T07:23:23.490Z,84.59
2023-08-08T07:24:23.491Z,83.34
2023-08-08T07:25:23.487Z,82.90
2023-08-08T07:26:23.453Z,81.89
2023-08-08T07:27:23.463Z,80.44
2023-08-08T07:28:23.496Z,80.47
2023-08-08T07:29:23.437Z,79.73
2023-08-08T07:30:23.434Z,79.09
2023-08-08T07:31:23.489Z,77.17
2023-08-08T07:32:23.466Z,76.57
2023-08-08T07:33:23.387Z,77.34
2023-08-08T07:34:23.398Z,78.15
2023-08-08T07:35:23.350Z,76.43
2023-08-08T07:36:23.348Z,74.99
2023-08-08T07:37:23.335Z,74.29
2023-08-08T07:38:23.349Z,75.02
2023-08-08T07:39:23.309Z,76.54
2023-08-08T07:40:23.303Z,74.99
2023-08-08T07:41:23.282Z,74.89
2023-08-08T07:42:23.280Z,75.70
2023-08-08T07:43:23.283Z,76.40
2023-08-08T07:44:23.387Z,77.40
2023-08-08T07:45:23.271Z,77.07
2023-08-08T07:46:23.292Z,73.91
2023-08-08T07:47:23.229Z,74.21
2023-08-08T07:48:23.213Z,73.11
2023-08-08T07:49:23.228Z,75.52
2023-08-08T07:50:23.229Z,73.91
2023-08-08T07:51:23.176Z,74.88
2023-08-08T07:52:23.190Z,73.27
2023-08-08T07:53:23.167Z,75.68
2023-08-08T07:54:23.155Z,73.00
2023-08-08T07:55:23.146Z,74.62
2023-08-08T07:56:23.141Z,73.58
2023-08-08T07:57:23.138Z,73.07
2023-08-08T07:58:23.139Z,74.35
2023-08-08T07:59:23.100Z,70.63
2023-08-08T08:00:23.126Z,72.17
2023-08-08T08:01:23.138Z,71.63
2023-08-08T08:02:23.160Z,73.94
2023-08-08T08:03:23.174Z,69.96
2023-08-08T08:04:23.052Z,71.67
2023-08-08T08:05:23.038Z,72.67
2023-08-08T08:06:23.027Z,72.37
2023-08-08T08:07:23.023Z,73.91
2023-08-08T08:08:23.011Z,73.27
2023-08-08T08:09:22.988Z,74.38
2023-08-08T08:10:22.983Z,71.63
2023-08-08T08:11:22.969Z,71.67
2023-08-08T08:12:22.972Z,71.16
2023-08-08T08:13:22.969Z,72.17
2023-08-08T08:14:22.943Z,73.18
2023-08-08T08:15:22.925Z,73.24
2023-08-08T08:16:22.958Z,72.53
2023-08-08T08:17:22.899Z,73.81
2023-08-08T08:18:22.891Z,72.30
2023-08-08T08:19:22.934Z,69.89
2023-08-08T08:20:22.880Z,72.10
2023-08-08T08:21:22.887Z,72.97
2023-08-08T08:22:22.849Z,70.36
2023-08-08T08:23:22.856Z,71.63
2023-08-08T08:24:22.886Z,71.06
2023-08-08T08:25:22.832Z,70.86
2023-08-08T08:26:22.827Z,70.43
2023-08-08T08:27:22.812Z,72.10
2023-08-08T08:28:22.802Z,73.81
2023-08-08T08:29:22.772Z,73.07
2023-08-08T08:30:22.761Z,71.93
2023-08-08T08:31:22.815Z,70.12
2023-08-08T08:32:22.786Z,71.77
2023-08-08T08:33:22.754Z,73.64
2023-08-08T08:34:22.738Z,71.90
2023-08-08T08:35:22.728Z,68.12
2023-08-08T08:36:22.706Z,70.83
2023-08-08T08:37:22.686Z,70.59
2023-08-08T08:38:22.689Z,70.23
2023-08-08T08:39:22.668Z,68.82
2023-08-08T08:40:22.694Z,70.53
2023-08-08T08:41:22.642Z,68.79
2023-08-08T08:42:22.635Z,72.03
2023-08-08T08:43:22.636Z,68.59
2023-08-08T08:44:22.618Z,67.65
2023-08-08T08:45:22.595Z,69.73
2023-08-08T08:46:22.633Z,71.63
2023-08-08T08:47:22.599Z,69.39
2023-08-08T08:48:22.754Z,68.52
2023-08-08T08:49:22.574Z,67.61
2023-08-08T08:50:22.569Z,70.03
2023-08-08T08:51:22.538Z,69.82
2023-08-08T08:52:22.534Z,69.92
2023-08-08T08:53:22.532Z,67.02
2023-08-08T08:54:22.509Z,69.32
2023-08-08T08:55:22.493Z,70.16
2023-08-08T08:56:22.492Z,69.32
2023-08-08T08:57:22.475Z,67.72
2023-08-08T08:58:22.489Z,69.42
2023-08-08T08:59:22.454Z,68.22
2023-08-08T09:00:22.442Z,68.08
2023-08-08T09:01:22.509Z,66.41
2023-08-08T09:02:22.469Z,69.22
2023-08-08T09:03:22.536Z,69.82
2023-08-08T09:04:22.430Z,66.82
2023-08-08T09:05:22.385Z,69.29
2023-08-08T09:06:22.374Z,66.38
2023-08-08T09:07:22.363Z,68.89
2023-08-08T09:08:22.368Z,67.88
2023-08-08T09:09:22.374Z,65.98
2023-08-08T09:10:22.354Z,65.48
2023-08-08T09:11:22.337Z,66.48
2023-08-08T09:12:22.308Z,66.85
2023-08-08T09:13:22.314Z,66.05
2023-08-08T09:14:22.285Z,66.05
2023-08-08T09:15:22.359Z,66.55
2023-08-08T09:16:22.317Z,64.95
2023-08-08T09:17:25.846Z,65.38
2023-08-08T09:18:23.320Z,66.05
2023-08-08T09:19:22.288Z,65.25
2023-08-08T09:20:22.326Z,65.05
2023-08-08T09:21:22.207Z,65.55
2023-08-08T09:22:22.195Z,64.15
2023-08-08T09:23:22.224Z,65.95
2023-08-08T09:24:22.176Z,64.95
2023-08-08T09:25:22.167Z,65.88
2023-08-08T09:26:22.169Z,65.81
2023-08-08T09:27:22.183Z,68.12
2023-08-08T09:28:22.134Z,69.39
2023-08-08T09:29:22.129Z,67.25
2023-08-08T09:30:22.237Z,67.58
2023-08-08T09:31:22.163Z,67.85
2023-08-08T09:32:22.153Z,66.99
2023-08-08T09:33:22.107Z,66.82
2023-08-08T09:34:22.101Z,66.91
2023-08-08T09:35:22.066Z,66.82
2023-08-08T09:36:22.100Z,67.61
2023-08-08T09:37:22.065Z,66.61
2023-08-08T09:38:22.052Z,66.52
2023-08-08T09:39:22.068Z,65.81
2023-08-08T09:40:22.048Z,65.74
2023-08-08T09:41:21.996Z,68.35
2023-08-08T09:42:21.985Z,66.64
2023-08-08T09:43:21.976Z,67.85
2023-08-08T09:44:21.965Z,67.82
2023-08-08T09:45:21.970Z,66.71
2023-08-08T09:46:22.008Z,67.69
2023-08-08T09:47:23.144Z,68.49
2023-08-08T09:48:22.038Z,65.78
2023-08-08T09:49:21.916Z,66.52
2023-08-08T09:50:29.477Z,68.92
2023-08-08T09:51:21.899Z,68.12
2023-08-08T09:52:22.014Z,68.72
2023-08-08T09:53:21.890Z,68.02
2023-08-08T09:54:21.892Z,68.22
2023-08-08T09:55:21.889Z,67.99
2023-08-08T09:56:21.849Z,65.28
2023-08-08T09:57:21.841Z,66.82
2023-08-08T09:58:21.829Z,66.41
2023-08-08T09:59:21.814Z,68.02
2023-08-08T10:00:21.828Z,66.91
2023-08-08T10:01:21.897Z,67.92
2023-08-08T10:02:21.800Z,68.02
2023-08-08T10:03:21.812Z,68.02
2023-08-08T10:04:21.807Z,66.99
2023-08-08T10:05:21.776Z,67.29
2023-08-08T10:06:21.744Z,66.48
2023-08-08T10:07:21.743Z,65.38
2023-08-08T10:08:21.852Z,65.75
2023-08-08T10:09:21.693Z,66.05
2023-08-08T10:10:21.718Z,66.11
2023-08-08T10:11:21.679Z,67.18
2023-08-08T10:12:21.694Z,66.28
2023-08-08T10:13:21.680Z,66.35
2023-08-08T10:14:21.647Z,66.05
2023-08-08T10:15:21.646Z,66.48
2023-08-08T10:16:21.657Z,69.26
2023-08-08T10:17:21.671Z,66.05
2023-08-08T10:18:21.607Z,67.76
2023-08-08T10:19:21.633Z,65.65
2023-08-08T10:20:21.582Z,66.08
2023-08-08T10:21:21.574Z,66.99
2023-08-08T10:22:21.615Z,66.08
2023-08-08T10:23:21.554Z,65.18
2023-08-08T10:24:21.593Z,66.31
2023-08-08T10:25:21.533Z,66.82
2023-08-08T10:26:21.531Z,67.88
2023-08-08T10:27:21.517Z,67.82
2023-08-08T10:28:26.730Z,66.82
2023-08-08T10:29:22.518Z,66.91
2023-08-08T10:30:21.476Z,67.92
2023-08-08T10:31:21.497Z,67.61
2023-08-08T10:32:21.448Z,67.22
2023-08-08T10:33:21.456Z,66.91
2023-08-08T10:34:21.472Z,66.71
2023-08-08T10:35:21.420Z,66.75
2023-08-08T10:36:21.406Z,67.85
2023-08-08T10:37:21.396Z,68.29
2023-08-08T10:38:21.383Z,68.29
2023-08-08T10:39:21.374Z,66.47
2023-08-08T10:40:21.412Z,66.85
2023-08-08T10:41:21.363Z,66.35
2023-08-08T10:42:21.359Z,66.85
2023-08-08T10:43:21.363Z,66.28
2023-08-08T10:44:21.318Z,66.64
2023-08-08T10:45:21.307Z,66.55
2023-08-08T10:46:21.365Z,66.14
2023-08-08T10:47:21.287Z,66.41
2023-08-08T10:48:21.313Z,66.31
2023-08-08T10:49:21.269Z,66.91
2023-08-08T10:50:21.252Z,65.21
2023-08-08T10:51:21.279Z,67.22
2023-08-08T10:52:22.167Z,68.62
2023-08-08T10:53:21.219Z,67.92
2023-08-08T10:54:21.210Z,66.52
2023-08-08T10:55:21.216Z,66.82
2023-08-08T10:56:21.246Z,67.88
2023-08-08T10:57:21.176Z,65.61
2023-08-08T10:58:21.280Z,67.92
2023-08-08T10:59:22.071Z,66.61
2023-08-08T11:00:21.146Z,66.99
2023-08-08T11:01:21.154Z,68.02
2023-08-08T11:02:21.165Z,68.29
2023-08-08T11:03:21.110Z,67.79
2023-08-08T11:04:21.167Z,67.88
2023-08-08T11:05:21.105Z,68.19
2023-08-08T11:06:21.104Z,70.16
2023-08-08T11:07:21.071Z,67.96
2023-08-08T11:08:21.057Z,66.25
2023-08-08T11:09:21.054Z,67.99
2023-08-08T11:10:21.040Z,67.99
2023-08-08T11:11:21.056Z,68.35
2023-08-08T11:12:21.071Z,67.79
2023-08-08T11:13:21.043Z,67.25
2023-08-08T11:14:21.065Z,66.75
2023-08-08T11:15:20.985Z,67.65
2023-08-08T11:16:21.029Z,67.65
2023-08-08T11:17:21.016Z,67.76
2023-08-08T11:18:20.988Z,66.05
2023-08-08T11:19:20.941Z,66.35
2023-08-08T11:20:20.959Z,66.45
2023-08-08T11:21:20.925Z,66.38
2023-08-08T11:22:20.909Z,67.05
2023-08-08T11:23:20.893Z,67.29
2023-08-08T11:24:21.066Z,67.88
2023-08-08T11:25:20.902Z,67.05
2023-08-08T11:26:20.863Z,66.58
2023-08-08T11:28:21.006Z,68.08
2023-08-08T11:29:20.885Z,67.08
2023-08-08T11:30:20.810Z,66.99
2023-08-08T11:31:20.892Z,66.99
2023-08-08T11:32:20.802Z,68.02
2023-08-08T11:33:20.813Z,67.18
2023-08-08T11:34:20.877Z,68.02
2023-08-08T11:35:20.766Z,67.92
2023-08-08T11:36:20.756Z,68.02
2023-08-08T11:37:20.773Z,68.62
2023-08-08T11:38:21.539Z,69.26
2023-08-08T11:39:20.728Z,67.75
2023-08-08T11:40:20.711Z,67.85
2023-08-08T11:41:20.695Z,69.15
2023-08-08T11:42:20.688Z,67.75
2023-08-08T11:43:20.711Z,67.68
2023-08-08T11:44:20.789Z,69.49
2023-08-08T11:45:20.687Z,70.70
2023-08-08T11:46:20.668Z,69.19
2023-08-08T11:47:20.632Z,70.59
2023-08-08T11:48:20.618Z,70.19
2023-08-08T11:49:20.608Z,69.49
2023-08-08T11:50:20.635Z,69.29
2023-08-08T11:51:20.592Z,69.49
2023-08-08T11:52:20.636Z,70.89
2023-08-08T11:53:20.565Z,70.29
2023-08-08T11:54:20.565Z,70.89
2023-08-08T11:55:20.647Z,71.30
2023-08-08T11:56:20.545Z,70.89
2023-08-08T11:57:20.529Z,69.49
2023-08-08T11:58:20.510Z,70.53
2023-08-08T11:59:20.544Z,69.76
2023-08-08T12:00:20.512Z,70.46
2023-08-08T12:01:20.613Z,70.36
2023-08-08T12:02:20.490Z,70.56
2023-08-08T12:03:20.550Z,72.27
2023-08-08T12:04:20.456Z,72.07
2023-08-08T12:05:20.450Z,71.09
2023-08-08T12:06:20.448Z,72.81
2023-08-08T12:07:20.453Z,71.20
2023-08-08T12:08:20.487Z,70.59
2023-08-08T12:09:20.445Z,70.79
2023-08-08T12:10:20.480Z,71.23
2023-08-08T12:11:25.415Z,71.73
2023-08-08T12:12:21.365Z,71.83
2023-08-08T12:13:20.387Z,72.41
2023-08-08T12:14:20.349Z,72.41
2023-08-08T12:15:20.365Z,72.10
2023-08-08T12:16:20.358Z,72.24
2023-08-08T12:17:20.408Z,72.00
2023-08-08T12:18:20.350Z,72.50
2023-08-08T12:19:20.296Z,72.20
2023-08-08T12:20:20.353Z,73.81
2023-08-08T12:21:20.291Z,72.00
2023-08-08T12:22:20.255Z,72.81
2023-08-08T12:23:20.248Z,71.80
2023-08-08T12:24:20.270Z,70.50
2023-08-08T12:25:20.229Z,70.59
2023-08-08T12:26:20.236Z,71.00
2023-08-08T12:27:20.230Z,71.30
2023-08-08T12:28:20.188Z,70.29
2023-08-08T12:29:20.221Z,70.70
2023-08-08T12:30:20.163Z,70.79
2023-08-08T12:31:20.199Z,71.09
2023-08-08T12:32:20.188Z,72.10
2023-08-08T12:33:20.140Z,70.66
2023-08-08T12:34:20.124Z,71.16
2023-08-08T12:35:20.136Z,70.86
2023-08-08T12:36:20.123Z,69.92
2023-08-08T12:37:20.133Z,69.92
2023-08-08T12:38:20.104Z,69.62
2023-08-08T12:39:20.111Z,68.99
2023-08-08T12:40:20.072Z,69.52
2023-08-08T12:41:20.054Z,69.99
2023-08-08T12:42:20.210Z,70.19
2023-08-08T12:43:20.093Z,68.49
2023-08-08T12:44:20.036Z,70.03
2023-08-08T12:45:21.019Z,70.09
2023-08-08T12:46:20.088Z,70.43
2023-08-08T12:47:20.214Z,70.23
2023-08-08T12:48:20.000Z,70.43
2023-08-08T12:49:20.000Z,70.63
2023-08-08T12:50:19.984Z,70.93
2023-08-08T12:51:20.091Z,70.36
2023-08-08T12:52:19.945Z,70.56
2023-08-08T12:53:19.923Z,71.26